sensor_id;sensor_type;location;lat;lon;timestamp;temperature;humidity
20594;DHT22;10455;48.732;10.266;2023-12-28T00:01:18;1.70;99.90
20594;DHT22;10455;48.732;10.266;2023-12-28T00:06:20;1.40;99.90
20594;DHT22;10455;48.732;10.266;2023-12-28T00:11:23;1.30;99.90
20594;DHT22;10455;48.732;10.266;2023-12-28T00:16:25;1.60;99.90
20594;DHT22;10455;48.732;10.266;2023-12-28T00:21:27;2.70;99.90
20594;DHT22;10455;48.732;10.266;2023-12-28T00:26:30;3.30;99.90
20594;DHT22;10455;48.732;10.266;2023-12-28T00:31:32;3.70;99.90
20594;DHT22;10455;48.732;10.266;2023-12-28T00:36:34;3.60;99.90
20594;DHT22;10455;48.732;10.266;2023-12-28T00:41:37;3.50;99.90
20594;DHT22;10455;48.732;10.266;2023-12-28T00:56:48;1.50;99.90
20594;DHT22;10455;48.732;10.266;2023-12-28T01:06:53;1.40;99.90
20594;DHT22;10455;48.732;10.266;2023-12-28T01:16:58;1.20;99.90
20594;DHT22;10455;48.732;10.266;2023-12-28T01:22:00;0.80;99.90
20594;DHT22;10455;48.732;10.266;2023-12-28T01:27:04;0.70;99.90
20594;DHT22;10455;48.732;10.266;2023-12-28T01:32:06;0.80;99.90
20594;DHT22;10455;48.732;10.266;2023-12-28T01:37:08;0.70;99.90
20594;DHT22;10455;48.732;10.266;2023-12-28T01:42:12;0.90;99.90
20594;DHT22;10455;48.732;10.266;2023-12-28T01:47:14;0.70;99.90
20594;DHT22;10455;48.732;10.266;2023-12-28T01:52:16;0.70;99.90
20594;DHT22;10455;48.732;10.266;2023-12-28T01:57:22;0.50;99.90
20594;DHT22;10455;48.732;10.266;2023-12-28T02:02:28;0.50;99.90
20594;DHT22;10455;48.732;10.266;2023-12-28T02:07:32;0.40;99.90
20594;DHT22;10455;48.732;10.266;2023-12-28T02:12:39;1.10;99.90
20594;DHT22;10455;48.732;10.266;2023-12-28T02:17:46;2.10;99.90
20594;DHT22;10455;48.732;10.266;2023-12-28T02:22:50;2.50;99.90
20594;DHT22;10455;48.732;10.266;2023-12-28T02:27:53;2.60;99.90
20594;DHT22;10455;48.732;10.266;2023-12-28T02:33:02;2.60;99.90
20594;DHT22;10455;48.732;10.266;2023-12-28T02:38:10;2.60;99.90
20594;DHT22;10455;48.732;10.266;2023-12-28T02:43:14;2.50;99.90
20594;DHT22;10455;48.732;10.266;2023-12-28T02:48:17;2.40;99.90
20594;DHT22;10455;48.732;10.266;2023-12-28T02:53:19;1.80;99.90
20594;DHT22;10455;48.732;10.266;2023-12-28T03:03:24;2.00;99.90
20594;DHT22;10455;48.732;10.266;2023-12-28T03:08:26;2.30;99.90
20594;DHT22;10455;48.732;10.266;2023-12-28T03:13:29;2.40;99.90
20594;DHT22;10455;48.732;10.266;2023-12-28T03:18:32;2.50;99.90
20594;DHT22;10455;48.732;10.266;2023-12-28T03:23:34;2.40;99.90
20594;DHT22;10455;48.732;10.266;2023-12-28T03:28:37;2.30;99.90
20594;DHT22;10455;48.732;10.266;2023-12-28T03:33:39;2.50;99.90
20594;DHT22;10455;48.732;10.266;2023-12-28T03:38:41;2.60;99.90
20594;DHT22;10455;48.732;10.266;2023-12-28T03:43:44;2.80;99.90
20594;DHT22;10455;48.732;10.266;2023-12-28T03:48:46;2.80;99.90
20594;DHT22;10455;48.732;10.266;2023-12-28T03:53:48;2.50;99.90
20594;DHT22;10455;48.732;10.266;2023-12-28T03:58:52;2.30;99.90
20594;DHT22;10455;48.732;10.266;2023-12-28T04:03:55;2.30;99.90
20594;DHT22;10455;48.732;10.266;2023-12-28T04:08:57;2.60;99.90
20594;DHT22;10455;48.732;10.266;2023-12-28T04:14:00;2.70;99.90
20594;DHT22;10455;48.732;10.266;2023-12-28T04:19:02;2.50;99.90
20594;DHT22;10455;48.732;10.266;2023-12-28T04:24:05;2.60;99.90
20594;DHT22;10455;48.732;10.266;2023-12-28T04:29:08;2.60;99.90
20594;DHT22;10455;48.732;10.266;2023-12-28T04:39:13;2.90;99.90
20594;DHT22;10455;48.732;10.266;2023-12-28T04:44:16;2.80;99.90
20594;DHT22;10455;48.732;10.266;2023-12-28T04:49:18;2.70;99.90
20594;DHT22;10455;48.732;10.266;2023-12-28T04:54:20;2.90;99.90
20594;DHT22;10455;48.732;10.266;2023-12-28T04:59:24;3.10;99.90
20594;DHT22;10455;48.732;10.266;2023-12-28T05:04:26;3.30;99.90
20594;DHT22;10455;48.732;10.266;2023-12-28T05:09:27;3.40;99.90
20594;DHT22;10455;48.732;10.266;2023-12-28T05:14:31;3.50;99.90
20594;DHT22;10455;48.732;10.266;2023-12-28T05:19:33;3.60;99.90
20594;DHT22;10455;48.732;10.266;2023-12-28T05:24:35;3.40;99.90
20594;DHT22;10455;48.732;10.266;2023-12-28T05:29:39;3.30;99.90
20594;DHT22;10455;48.732;10.266;2023-12-28T05:34:41;3.30;99.90
20594;DHT22;10455;48.732;10.266;2023-12-28T05:39:43;3.40;99.90
20594;DHT22;10455;48.732;10.266;2023-12-28T05:44:47;3.20;99.90
20594;DHT22;10455;48.732;10.266;2023-12-28T05:49:49;3.20;99.90
20594;DHT22;10455;48.732;10.266;2023-12-28T05:54:52;3.20;99.90
20594;DHT22;10455;48.732;10.266;2023-12-28T05:59:56;3.40;99.90
20594;DHT22;10455;48.732;10.266;2023-12-28T06:04:58;3.50;99.90
20594;DHT22;10455;48.732;10.266;2023-12-28T06:10:00;3.50;99.90
20594;DHT22;10455;48.732;10.266;2023-12-28T06:15:05;3.60;99.90
20594;DHT22;10455;48.732;10.266;2023-12-28T06:20:08;3.40;99.90
20594;DHT22;10455;48.732;10.266;2023-12-28T06:25:11;3.40;99.90
20594;DHT22;10455;48.732;10.266;2023-12-28T06:30:16;3.50;99.90
20594;DHT22;10455;48.732;10.266;2023-12-28T06:35:23;3.50;99.90
20594;DHT22;10455;48.732;10.266;2023-12-28T06:40:31;3.60;99.90
20594;DHT22;10455;48.732;10.266;2023-12-28T06:45:34;3.70;99.90
20594;DHT22;10455;48.732;10.266;2023-12-28T06:50:36;3.80;99.90
20594;DHT22;10455;48.732;10.266;2023-12-28T06:55:38;3.80;99.90
20594;DHT22;10455;48.732;10.266;2023-12-28T07:05:44;4.10;99.90
20594;DHT22;10455;48.732;10.266;2023-12-28T07:10:46;4.30;99.90
20594;DHT22;10455;48.732;10.266;2023-12-28T07:15:49;4.50;99.90
20594;DHT22;10455;48.732;10.266;2023-12-28T07:20:51;4.90;99.90
20594;DHT22;10455;48.732;10.266;2023-12-28T07:25:53;5.30;99.90
20594;DHT22;10455;48.732;10.266;2023-12-28T07:30:56;5.20;99.90
20594;DHT22;10455;48.732;10.266;2023-12-28T07:35:58;5.10;99.90
20594;DHT22;10455;48.732;10.266;2023-12-28T07:41:03;5.20;99.90
20594;DHT22;10455;48.732;10.266;2023-12-28T07:46:06;5.10;99.90
20594;DHT22;10455;48.732;10.266;2023-12-28T07:51:08;5.30;99.90
20594;DHT22;10455;48.732;10.266;2023-12-28T07:56:10;5.50;99.90
20594;DHT22;10455;48.732;10.266;2023-12-28T08:01:13;5.70;99.90
20594;DHT22;10455;48.732;10.266;2023-12-28T08:06:15;6.00;99.90
20594;DHT22;10455;48.732;10.266;2023-12-28T08:11:17;6.30;99.90
20594;DHT22;10455;48.732;10.266;2023-12-28T08:16:21;6.30;99.90
20594;DHT22;10455;48.732;10.266;2023-12-28T08:21:23;6.30;99.90
20594;DHT22;10455;48.732;10.266;2023-12-28T08:26:25;6.50;99.90
20594;DHT22;10455;48.732;10.266;2023-12-28T08:31:28;7.10;99.90
20594;DHT22;10455;48.732;10.266;2023-12-28T08:36:30;7.30;99.90
20594;DHT22;10455;48.732;10.266;2023-12-28T08:41:32;7.20;99.90
20594;DHT22;10455;48.732;10.266;2023-12-28T08:46:36;7.10;99.90
20594;DHT22;10455;48.732;10.266;2023-12-28T08:51:37;7.20;99.90
20594;DHT22;10455;48.732;10.266;2023-12-28T08:56:39;7.20;99.90
20594;DHT22;10455;48.732;10.266;2023-12-28T09:01:42;7.40;99.90
20594;DHT22;10455;48.732;10.266;2023-12-28T09:06:44;7.50;99.90
20594;DHT22;10455;48.732;10.266;2023-12-28T09:11:46;7.40;99.90
20594;DHT22;10455;48.732;10.266;2023-12-28T09:16:50;7.50;99.90
20594;DHT22;10455;48.732;10.266;2023-12-28T09:21:51;7.70;99.90
20594;DHT22;10455;48.732;10.266;2023-12-28T09:26:53;7.70;99.90
20594;DHT22;10455;48.732;10.266;2023-12-28T09:31:56;7.70;99.90
20594;DHT22;10455;48.732;10.266;2023-12-28T09:36:58;7.70;99.90
20594;DHT22;10455;48.732;10.266;2023-12-28T09:42:06;7.70;99.90
20594;DHT22;10455;48.732;10.266;2023-12-28T09:47:10;7.70;99.90
20594;DHT22;10455;48.732;10.266;2023-12-28T09:52:13;7.50;99.90
20594;DHT22;10455;48.732;10.266;2023-12-28T09:57:15;7.20;99.90
20594;DHT22;10455;48.732;10.266;2023-12-28T10:02:19;6.90;99.90
20594;DHT22;10455;48.732;10.266;2023-12-28T10:07:21;6.70;99.90
20594;DHT22;10455;48.732;10.266;2023-12-28T10:12:25;6.80;99.90
20594;DHT22;10455;48.732;10.266;2023-12-28T10:17:29;6.80;99.90
20594;DHT22;10455;48.732;10.266;2023-12-28T10:22:31;7.10;99.90
20594;DHT22;10455;48.732;10.266;2023-12-28T10:27:38;7.00;99.90
20594;DHT22;10455;48.732;10.266;2023-12-28T10:32:42;7.10;99.90
20594;DHT22;10455;48.732;10.266;2023-12-28T10:37:44;7.10;99.90
20594;DHT22;10455;48.732;10.266;2023-12-28T10:42:51;7.30;99.90
20594;DHT22;10455;48.732;10.266;2023-12-28T10:48:04;7.30;99.90
20594;DHT22;10455;48.732;10.266;2023-12-28T10:53:20;7.20;99.90
20594;DHT22;10455;48.732;10.266;2023-12-28T10:58:28;7.40;99.90
20594;DHT22;10455;48.732;10.266;2023-12-28T11:03:37;7.60;99.90
20594;DHT22;10455;48.732;10.266;2023-12-28T11:08:41;7.80;99.90
20594;DHT22;10455;48.732;10.266;2023-12-28T11:13:45;7.90;99.90
20594;DHT22;10455;48.732;10.266;2023-12-28T11:18:49;8.10;99.90
20594;DHT22;10455;48.732;10.266;2023-12-28T11:23:52;7.90;99.90
20594;DHT22;10455;48.732;10.266;2023-12-28T11:29:00;7.80;99.90
20594;DHT22;10455;48.732;10.266;2023-12-28T11:34:05;7.70;99.90
20594;DHT22;10455;48.732;10.266;2023-12-28T11:39:07;7.90;99.90
20594;DHT22;10455;48.732;10.266;2023-12-28T11:44:11;8.00;99.90
20594;DHT22;10455;48.732;10.266;2023-12-28T11:49:25;8.30;99.90
20594;DHT22;10455;48.732;10.266;2023-12-28T11:54:38;8.40;99.90
20594;DHT22;10455;48.732;10.266;2023-12-28T11:59:40;8.60;99.90
20594;DHT22;10455;48.732;10.266;2023-12-28T12:04:43;8.90;99.90
20594;DHT22;10455;48.732;10.266;2023-12-28T12:09:45;9.00;99.90
20594;DHT22;10455;48.732;10.266;2023-12-28T12:14:47;9.10;99.90
20594;DHT22;10455;48.732;10.266;2023-12-28T12:19:50;9.20;99.90
20594;DHT22;10455;48.732;10.266;2023-12-28T12:24:56;8.90;99.90
20594;DHT22;10455;48.732;10.266;2023-12-28T12:30:00;8.70;99.90
20594;DHT22;10455;48.732;10.266;2023-12-28T12:35:04;9.00;99.90
20594;DHT22;10455;48.732;10.266;2023-12-28T12:40:07;9.00;99.90
20594;DHT22;10455;48.732;10.266;2023-12-28T12:45:09;9.00;99.90
20594;DHT22;10455;48.732;10.266;2023-12-28T12:50:12;9.00;99.90
20594;DHT22;10455;48.732;10.266;2023-12-28T12:55:14;9.00;99.90
20594;DHT22;10455;48.732;10.266;2023-12-28T13:00:17;9.00;99.90
20594;DHT22;10455;48.732;10.266;2023-12-28T13:05:23;9.10;99.90
20594;DHT22;10455;48.732;10.266;2023-12-28T13:10:25;9.00;99.90
20594;DHT22;10455;48.732;10.266;2023-12-28T13:15:27;9.10;99.90
20594;DHT22;10455;48.732;10.266;2023-12-28T13:20:30;8.90;99.90
20594;DHT22;10455;48.732;10.266;2023-12-28T13:25:32;8.80;99.90
20594;DHT22;10455;48.732;10.266;2023-12-28T13:30:34;8.80;99.90
20594;DHT22;10455;48.732;10.266;2023-12-28T13:35:38;8.80;99.90
20594;DHT22;10455;48.732;10.266;2023-12-28T13:40:40;8.60;99.90
20594;DHT22;10455;48.732;10.266;2023-12-28T13:45:42;8.60;99.90
20594;DHT22;10455;48.732;10.266;2023-12-28T13:50:45;8.40;99.90
20594;DHT22;10455;48.732;10.266;2023-12-28T13:55:47;8.20;99.90
20594;DHT22;10455;48.732;10.266;2023-12-28T14:00:49;8.20;99.90
20594;DHT22;10455;48.732;10.266;2023-12-28T14:05:52;8.20;99.90
20594;DHT22;10455;48.732;10.266;2023-12-28T14:10:54;8.30;99.90
20594;DHT22;10455;48.732;10.266;2023-12-28T14:15:56;8.20;99.90
20594;DHT22;10455;48.732;10.266;2023-12-28T14:20:59;8.10;99.90
20594;DHT22;10455;48.732;10.266;2023-12-28T14:26:03;8.10;99.90
20594;DHT22;10455;48.732;10.266;2023-12-28T14:31:07;8.00;99.90
20594;DHT22;10455;48.732;10.266;2023-12-28T14:36:20;7.90;99.90
20594;DHT22;10455;48.732;10.266;2023-12-28T14:41:24;7.70;99.90
20594;DHT22;10455;48.732;10.266;2023-12-28T14:46:26;7.50;99.90
20594;DHT22;10455;48.732;10.266;2023-12-28T14:51:30;7.10;99.90
20594;DHT22;10455;48.732;10.266;2023-12-28T14:56:32;6.70;99.90
20594;DHT22;10455;48.732;10.266;2023-12-28T15:01:34;6.50;99.90
20594;DHT22;10455;48.732;10.266;2023-12-28T15:06:37;6.30;99.90
20594;DHT22;10455;48.732;10.266;2023-12-28T15:11:40;6.30;99.90
20594;DHT22;10455;48.732;10.266;2023-12-28T15:16:42;6.30;99.90
20594;DHT22;10455;48.732;10.266;2023-12-28T15:21:46;6.40;99.90
20594;DHT22;10455;48.732;10.266;2023-12-28T15:26:48;6.40;99.90
20594;DHT22;10455;48.732;10.266;2023-12-28T15:31:50;6.40;99.90
20594;DHT22;10455;48.732;10.266;2023-12-28T15:36:53;6.30;99.90
20594;DHT22;10455;48.732;10.266;2023-12-28T15:41:55;6.20;99.90
20594;DHT22;10455;48.732;10.266;2023-12-28T15:46:57;6.10;99.90
20594;DHT22;10455;48.732;10.266;2023-12-28T15:52:00;6.10;99.90
20594;DHT22;10455;48.732;10.266;2023-12-28T15:57:02;6.00;99.90
20594;DHT22;10455;48.732;10.266;2023-12-28T16:02:04;6.00;99.90
20594;DHT22;10455;48.732;10.266;2023-12-28T16:07:07;5.90;99.90
20594;DHT22;10455;48.732;10.266;2023-12-28T16:12:09;6.00;99.90
20594;DHT22;10455;48.732;10.266;2023-12-28T16:17:12;5.80;99.90
20594;DHT22;10455;48.732;10.266;2023-12-28T16:22:16;5.80;99.90
20594;DHT22;10455;48.732;10.266;2023-12-28T16:27:17;5.70;99.90
20594;DHT22;10455;48.732;10.266;2023-12-28T16:32:19;5.60;99.90
20594;DHT22;10455;48.732;10.266;2023-12-28T16:37:23;5.60;99.90
20594;DHT22;10455;48.732;10.266;2023-12-28T16:42:25;5.50;99.90
20594;DHT22;10455;48.732;10.266;2023-12-28T16:47:27;5.60;99.90
20594;DHT22;10455;48.732;10.266;2023-12-28T16:52:31;5.70;99.90
20594;DHT22;10455;48.732;10.266;2023-12-28T16:57:32;5.60;99.90
20594;DHT22;10455;48.732;10.266;2023-12-28T17:02:34;5.60;99.90
20594;DHT22;10455;48.732;10.266;2023-12-28T17:07:38;5.50;99.90
20594;DHT22;10455;48.732;10.266;2023-12-28T17:12:40;5.40;99.90
20594;DHT22;10455;48.732;10.266;2023-12-28T17:17:43;5.30;99.90
20594;DHT22;10455;48.732;10.266;2023-12-28T17:22:47;5.20;99.90
20594;DHT22;10455;48.732;10.266;2023-12-28T17:27:53;5.20;99.90
20594;DHT22;10455;48.732;10.266;2023-12-28T17:32:58;5.20;99.90
20594;DHT22;10455;48.732;10.266;2023-12-28T17:38:02;5.20;99.90
20594;DHT22;10455;48.732;10.266;2023-12-28T17:43:20;5.20;99.90
20594;DHT22;10455;48.732;10.266;2023-12-28T17:48:25;5.10;99.90
20594;DHT22;10455;48.732;10.266;2023-12-28T17:53:29;5.10;99.90
20594;DHT22;10455;48.732;10.266;2023-12-28T17:58:31;5.10;99.90
20594;DHT22;10455;48.732;10.266;2023-12-28T18:03:33;5.30;99.90
20594;DHT22;10455;48.732;10.266;2023-12-28T18:08:36;5.30;99.90
20594;DHT22;10455;48.732;10.266;2023-12-28T18:13:38;5.50;99.90
20594;DHT22;10455;48.732;10.266;2023-12-28T18:18:40;5.50;99.90
20594;DHT22;10455;48.732;10.266;2023-12-28T18:23:43;5.60;99.90
20594;DHT22;10455;48.732;10.266;2023-12-28T18:28:45;5.70;99.90
20594;DHT22;10455;48.732;10.266;2023-12-28T18:33:47;5.70;99.90
20594;DHT22;10455;48.732;10.266;2023-12-28T18:38:50;5.50;99.90
20594;DHT22;10455;48.732;10.266;2023-12-28T18:43:52;5.60;99.90
20594;DHT22;10455;48.732;10.266;2023-12-28T18:48:54;5.70;99.90
20594;DHT22;10455;48.732;10.266;2023-12-28T18:53:59;5.70;99.90
20594;DHT22;10455;48.732;10.266;2023-12-28T18:59:01;5.60;99.90
20594;DHT22;10455;48.732;10.266;2023-12-28T19:04:03;5.60;99.90
20594;DHT22;10455;48.732;10.266;2023-12-28T19:09:06;5.50;99.90
20594;DHT22;10455;48.732;10.266;2023-12-28T19:14:09;5.50;99.90
20594;DHT22;10455;48.732;10.266;2023-12-28T19:19:11;5.70;99.90
20594;DHT22;10455;48.732;10.266;2023-12-28T19:24:14;5.70;99.90
20594;DHT22;10455;48.732;10.266;2023-12-28T19:29:16;5.70;99.90
20594;DHT22;10455;48.732;10.266;2023-12-28T19:34:17;5.80;99.90
20594;DHT22;10455;48.732;10.266;2023-12-28T19:39:21;5.70;99.90
20594;DHT22;10455;48.732;10.266;2023-12-28T19:44:22;5.80;99.90
20594;DHT22;10455;48.732;10.266;2023-12-28T19:49:24;5.90;99.90
20594;DHT22;10455;48.732;10.266;2023-12-28T19:54:28;5.90;99.90
20594;DHT22;10455;48.732;10.266;2023-12-28T19:59:31;6.10;99.90
20594;DHT22;10455;48.732;10.266;2023-12-28T20:04:35;6.10;99.90
20594;DHT22;10455;48.732;10.266;2023-12-28T20:09:38;6.10;99.90
20594;DHT22;10455;48.732;10.266;2023-12-28T20:14:40;6.10;99.90
20594;DHT22;10455;48.732;10.266;2023-12-28T20:19:43;6.00;99.90
20594;DHT22;10455;48.732;10.266;2023-12-28T20:24:46;6.00;99.90
20594;DHT22;10455;48.732;10.266;2023-12-28T20:29:48;6.00;99.90
20594;DHT22;10455;48.732;10.266;2023-12-28T20:34:50;6.00;99.90
20594;DHT22;10455;48.732;10.266;2023-12-28T20:39:53;6.00;99.90
20594;DHT22;10455;48.732;10.266;2023-12-28T20:44:55;6.10;99.90
20594;DHT22;10455;48.732;10.266;2023-12-28T20:49:57;6.10;99.90
20594;DHT22;10455;48.732;10.266;2023-12-28T20:55:00;6.10;99.90
20594;DHT22;10455;48.732;10.266;2023-12-28T21:00:03;6.30;99.90
20594;DHT22;10455;48.732;10.266;2023-12-28T21:05:06;6.30;99.90
20594;DHT22;10455;48.732;10.266;2023-12-28T21:10:10;6.60;99.90
20594;DHT22;10455;48.732;10.266;2023-12-28T21:15:12;6.80;99.90
20594;DHT22;10455;48.732;10.266;2023-12-28T21:20:14;6.80;99.90
20594;DHT22;10455;48.732;10.266;2023-12-28T21:25:17;6.70;99.90
20594;DHT22;10455;48.732;10.266;2023-12-28T21:30:19;6.70;99.90
20594;DHT22;10455;48.732;10.266;2023-12-28T21:35:21;6.60;99.90
20594;DHT22;10455;48.732;10.266;2023-12-28T21:40:24;6.60;99.90
20594;DHT22;10455;48.732;10.266;2023-12-28T21:45:26;6.70;99.90
20594;DHT22;10455;48.732;10.266;2023-12-28T21:50:28;6.90;99.90
20594;DHT22;10455;48.732;10.266;2023-12-28T21:55:32;6.90;99.90
20594;DHT22;10455;48.732;10.266;2023-12-28T22:00:34;7.10;99.90
20594;DHT22;10455;48.732;10.266;2023-12-28T22:05:35;7.10;99.90
20594;DHT22;10455;48.732;10.266;2023-12-28T22:10:43;7.00;99.90
20594;DHT22;10455;48.732;10.266;2023-12-28T22:15:44;7.20;99.90
20594;DHT22;10455;48.732;10.266;2023-12-28T22:20:46;7.20;99.90
20594;DHT22;10455;48.732;10.266;2023-12-28T22:25:50;7.30;99.90
20594;DHT22;10455;48.732;10.266;2023-12-28T22:30:51;7.20;99.90
20594;DHT22;10455;48.732;10.266;2023-12-28T22:35:53;7.10;99.90
20594;DHT22;10455;48.732;10.266;2023-12-28T22:40:57;7.10;99.90
20594;DHT22;10455;48.732;10.266;2023-12-28T22:45:59;6.90;99.90
20594;DHT22;10455;48.732;10.266;2023-12-28T22:51:01;6.90;99.90
20594;DHT22;10455;48.732;10.266;2023-12-28T22:56:04;7.00;99.90
20594;DHT22;10455;48.732;10.266;2023-12-28T23:01:06;6.90;99.90
20594;DHT22;10455;48.732;10.266;2023-12-28T23:06:09;7.00;99.90
20594;DHT22;10455;48.732;10.266;2023-12-28T23:11:12;7.00;99.90
20594;DHT22;10455;48.732;10.266;2023-12-28T23:16:14;6.60;99.90
20594;DHT22;10455;48.732;10.266;2023-12-28T23:21:16;6.40;99.90
20594;DHT22;10455;48.732;10.266;2023-12-28T23:26:19;6.10;99.90
20594;DHT22;10455;48.732;10.266;2023-12-28T23:31:22;5.80;99.90
20594;DHT22;10455;48.732;10.266;2023-12-28T23:36:24;5.60;99.90
20594;DHT22;10455;48.732;10.266;2023-12-28T23:41:27;5.50;99.90
20594;DHT22;10455;48.732;10.266;2023-12-28T23:46:29;5.40;99.90
20594;DHT22;10455;48.732;10.266;2023-12-28T23:51:31;5.40;99.90
20594;DHT22;10455;48.732;10.266;2023-12-28T23:56:34;5.40;99.90
